Sainte-Dorothee, Canada
Current Conditions -  °F | °C
As of 11:00 PM on Monday 20 Oct 2014 (Local Time) from CYUL Reporting Station
Overcast Overcast  
Wind Chill: 40°   Ceiling: 4200
Heat Index: 43°   Visibility: 15mi
Dew Point: 39°   Wind: 5mph
Humidity: 87%   Direction: 40°NE
Pressure: 29.94"   Gusts: NA
Location:  45.53°N, 73.82°W
Report Text: CYUL 210300Z 04004KT 15SM FEW028 OVC042 06/04 A2994 RMK SC1SC7 SLP140
Loading
Personal Weather Stations






























Interactive Weather Map
Tropical Storm Tracking
New forecast layout! Learn more

10-Day Weather Forecast

Advertisements
Track Severe Weather on mobile